sensor_id;sensor_type;location;lat;lon;timestamp;pressure;altitude;pressure_sealevel;temperature;humidity
62948;BME280;51940;52.126;-0.994;2022-10-16T00:00:39;99320.20;;;9.86;80.07
62948;BME280;51940;52.126;-0.994;2022-10-16T00:03:06;99317.73;;;9.86;79.93
62948;BME280;51940;52.126;-0.994;2022-10-16T00:05:31;99321.68;;;9.85;79.74
62948;BME280;51940;52.126;-0.994;2022-10-16T00:07:58;99319.99;;;9.82;79.77
62948;BME280;51940;52.126;-0.994;2022-10-16T00:10:23;99322.93;;;9.80;79.77
62948;BME280;51940;52.126;-0.994;2022-10-16T00:12:49;99323.39;;;9.77;79.86
62948;BME280;51940;52.126;-0.994;2022-10-16T00:15:15;99321.73;;;9.74;79.89
62948;BME280;51940;52.126;-0.994;2022-10-16T00:17:40;99318.95;;;9.72;79.91
62948;BME280;51940;52.126;-0.994;2022-10-16T00:20:06;99322.39;;;9.71;79.98
62948;BME280;51940;52.126;-0.994;2022-10-16T00:22:33;99323.52;;;9.69;79.90
62948;BME280;51940;52.126;-0.994;2022-10-16T00:24:58;99326.42;;;9.68;79.95
62948;BME280;51940;52.126;-0.994;2022-10-16T00:27:24;99324.19;;;9.66;79.85
62948;BME280;51940;52.126;-0.994;2022-10-16T00:29:50;99328.37;;;9.63;79.92
62948;BME280;51940;52.126;-0.994;2022-10-16T00:32:17;99327.59;;;9.60;79.81
62948;BME280;51940;52.126;-0.994;2022-10-16T00:34:43;99331.27;;;9.57;79.97
62948;BME280;51940;52.126;-0.994;2022-10-16T00:37:08;99335.08;;;9.54;79.91
62948;BME280;51940;52.126;-0.994;2022-10-16T00:39:33;99325.02;;;9.52;79.94
62948;BME280;51940;52.126;-0.994;2022-10-16T00:41:59;99332.40;;;9.51;80.10
62948;BME280;51940;52.126;-0.994;2022-10-16T00:47:14;99345.98;;;9.49;80.19
62948;BME280;51940;52.126;-0.994;2022-10-16T00:49:41;99350.09;;;9.49;80.15
62948;BME280;51940;52.126;-0.994;2022-10-16T00:52:06;99348.34;;;9.47;80.36
62948;BME280;51940;52.126;-0.994;2022-10-16T00:54:32;99345.70;;;9.46;80.17
62948;BME280;51940;52.126;-0.994;2022-10-16T00:57:01;99340.61;;;9.45;80.38
62948;BME280;51940;52.126;-0.994;2022-10-16T00:59:33;99339.77;;;9.44;80.37
62948;BME280;51940;52.126;-0.994;2022-10-16T01:02:00;99344.06;;;9.43;80.57
62948;BME280;51940;52.126;-0.994;2022-10-16T01:04:26;99343.73;;;9.43;80.59
62948;BME280;51940;52.126;-0.994;2022-10-16T01:07:16;99348.54;;;9.43;80.55
62948;BME280;51940;52.126;-0.994;2022-10-16T01:13:00;99348.95;;;9.41;80.53
62948;BME280;51940;52.126;-0.994;2022-10-16T01:16:01;99354.50;;;9.40;80.74
62948;BME280;51940;52.126;-0.994;2022-10-16T01:18:44;99356.87;;;9.38;80.76
62948;BME280;51940;52.126;-0.994;2022-10-16T01:21:35;99356.92;;;9.37;80.84
62948;BME280;51940;52.126;-0.994;2022-10-16T01:24:20;99362.16;;;9.35;80.72
62948;BME280;51940;52.126;-0.994;2022-10-16T01:32:56;99359.77;;;9.27;80.98
62948;BME280;51940;52.126;-0.994;2022-10-16T01:35:30;99365.42;;;9.24;81.15
62948;BME280;51940;52.126;-0.994;2022-10-16T01:38:06;99367.93;;;9.23;81.35
62948;BME280;51940;52.126;-0.994;2022-10-16T01:40:35;99370.59;;;9.23;81.18
62948;BME280;51940;52.126;-0.994;2022-10-16T01:43:11;99376.29;;;9.23;81.22
62948;BME280;51940;52.126;-0.994;2022-10-16T01:45:39;99388.83;;;9.25;81.27
62948;BME280;51940;52.126;-0.994;2022-10-16T01:48:06;99390.27;;;9.29;81.42
62948;BME280;51940;52.126;-0.994;2022-10-16T01:50:39;99393.11;;;9.35;81.45
62948;BME280;51940;52.126;-0.994;2022-10-16T01:53:08;99394.00;;;9.40;81.30
62948;BME280;51940;52.126;-0.994;2022-10-16T01:55:39;99399.36;;;9.45;81.28
62948;BME280;51940;52.126;-0.994;2022-10-16T01:58:10;99404.73;;;9.48;81.36
62948;BME280;51940;52.126;-0.994;2022-10-16T02:00:38;99406.04;;;9.52;81.42
62948;BME280;51940;52.126;-0.994;2022-10-16T02:03:05;99407.50;;;9.55;81.43
62948;BME280;51940;52.126;-0.994;2022-10-16T02:05:38;99412.12;;;9.61;81.19
62948;BME280;51940;52.126;-0.994;2022-10-16T02:08:06;99407.36;;;9.65;81.18
62948;BME280;51940;52.126;-0.994;2022-10-16T02:10:32;99407.05;;;9.69;81.15
62948;BME280;51940;52.126;-0.994;2022-10-16T02:13:05;99401.93;;;9.72;81.22
62948;BME280;51940;52.126;-0.994;2022-10-16T02:15:31;99399.20;;;9.73;81.22
62948;BME280;51940;52.126;-0.994;2022-10-16T02:17:56;99399.73;;;9.73;81.26
62948;BME280;51940;52.126;-0.994;2022-10-16T02:20:25;99403.54;;;9.72;81.24
62948;BME280;51940;52.126;-0.994;2022-10-16T02:22:53;99406.70;;;9.69;81.31
62948;BME280;51940;52.126;-0.994;2022-10-16T02:25:35;99412.67;;;9.66;81.38
62948;BME280;51940;52.126;-0.994;2022-10-16T02:28:08;99417.30;;;9.60;81.50
62948;BME280;51940;52.126;-0.994;2022-10-16T02:30:49;99420.66;;;9.56;81.60
62948;BME280;51940;52.126;-0.994;2022-10-16T02:33:16;99430.09;;;9.51;81.73
62948;BME280;51940;52.126;-0.994;2022-10-16T02:35:44;99435.36;;;9.48;81.81
62948;BME280;51940;52.126;-0.994;2022-10-16T02:38:12;99439.06;;;9.44;81.82
62948;BME280;51940;52.126;-0.994;2022-10-16T02:40:39;99446.31;;;9.41;81.95
62948;BME280;51940;52.126;-0.994;2022-10-16T02:43:05;99450.31;;;9.37;81.94
62948;BME280;51940;52.126;-0.994;2022-10-16T02:45:30;99452.05;;;9.34;81.93
62948;BME280;51940;52.126;-0.994;2022-10-16T02:47:56;99456.95;;;9.31;82.16
62948;BME280;51940;52.126;-0.994;2022-10-16T02:50:22;99459.84;;;9.29;82.12
62948;BME280;51940;52.126;-0.994;2022-10-16T02:52:47;99460.06;;;9.28;82.33
62948;BME280;51940;52.126;-0.994;2022-10-16T02:55:13;99465.08;;;9.27;82.27
62948;BME280;51940;52.126;-0.994;2022-10-16T02:57:38;99474.11;;;9.29;82.46
62948;BME280;51940;52.126;-0.994;2022-10-16T03:00:07;99477.60;;;9.31;82.67
62948;BME280;51940;52.126;-0.994;2022-10-16T03:02:33;99477.48;;;9.34;82.64
62948;BME280;51940;52.126;-0.994;2022-10-16T03:04:58;99479.52;;;9.37;82.63
62948;BME280;51940;52.126;-0.994;2022-10-16T03:07:24;99478.91;;;9.39;82.68
62948;BME280;51940;52.126;-0.994;2022-10-16T03:09:49;99482.24;;;9.41;82.73
62948;BME280;51940;52.126;-0.994;2022-10-16T03:12:14;99480.05;;;9.43;82.78
62948;BME280;51940;52.126;-0.994;2022-10-16T03:14:40;99478.02;;;9.44;82.90
62948;BME280;51940;52.126;-0.994;2022-10-16T03:17:05;99479.90;;;9.46;82.86
62948;BME280;51940;52.126;-0.994;2022-10-16T03:19:31;99489.27;;;9.48;82.84
62948;BME280;51940;52.126;-0.994;2022-10-16T03:21:56;99492.83;;;9.49;82.65
62948;BME280;51940;52.126;-0.994;2022-10-16T03:24:22;99493.71;;;9.49;82.79
62948;BME280;51940;52.126;-0.994;2022-10-16T03:26:47;99494.48;;;9.47;82.68
62948;BME280;51940;52.126;-0.994;2022-10-16T03:29:13;99496.36;;;9.44;82.66
62948;BME280;51940;52.126;-0.994;2022-10-16T03:31:38;99498.27;;;9.40;82.53
62948;BME280;51940;52.126;-0.994;2022-10-16T03:34:04;99500.35;;;9.37;82.48
62948;BME280;51940;52.126;-0.994;2022-10-16T03:36:29;99503.15;;;9.33;82.47
62948;BME280;51940;52.126;-0.994;2022-10-16T03:38:54;99504.84;;;9.30;82.46
62948;BME280;51940;52.126;-0.994;2022-10-16T03:41:20;99504.39;;;9.28;82.51
62948;BME280;51940;52.126;-0.994;2022-10-16T03:43:45;99509.47;;;9.25;82.32
62948;BME280;51940;52.126;-0.994;2022-10-16T03:46:11;99519.34;;;9.22;82.39
62948;BME280;51940;52.126;-0.994;2022-10-16T03:48:36;99520.67;;;9.20;82.41
62948;BME280;51940;52.126;-0.994;2022-10-16T03:51:02;99525.23;;;9.17;82.38
62948;BME280;51940;52.126;-0.994;2022-10-16T03:53:27;99524.25;;;9.14;82.54
62948;BME280;51940;52.126;-0.994;2022-10-16T03:55:52;99528.23;;;9.11;82.60
62948;BME280;51940;52.126;-0.994;2022-10-16T03:58:18;99532.94;;;9.09;82.84
62948;BME280;51940;52.126;-0.994;2022-10-16T04:00:46;99535.34;;;9.07;82.77
62948;BME280;51940;52.126;-0.994;2022-10-16T04:03:12;99538.39;;;9.04;82.75
62948;BME280;51940;52.126;-0.994;2022-10-16T04:05:38;99541.48;;;9.03;82.69
62948;BME280;51940;52.126;-0.994;2022-10-16T04:08:04;99552.36;;;9.02;82.84
62948;BME280;51940;52.126;-0.994;2022-10-16T04:10:29;99558.08;;;9.01;82.82
62948;BME280;51940;52.126;-0.994;2022-10-16T04:12:55;99564.38;;;8.99;82.81
62948;BME280;51940;52.126;-0.994;2022-10-16T04:15:25;99569.05;;;8.98;83.07
62948;BME280;51940;52.126;-0.994;2022-10-16T04:17:51;99572.42;;;8.97;82.95
62948;BME280;51940;52.126;-0.994;2022-10-16T04:20:17;99577.80;;;8.96;83.04
62948;BME280;51940;52.126;-0.994;2022-10-16T04:22:42;99581.94;;;8.94;83.08
62948;BME280;51940;52.126;-0.994;2022-10-16T04:25:08;99593.05;;;8.92;82.99
62948;BME280;51940;52.126;-0.994;2022-10-16T04:27:33;99604.52;;;8.89;83.22
62948;BME280;51940;52.126;-0.994;2022-10-16T04:29:59;99608.51;;;8.86;83.21
62948;BME280;51940;52.126;-0.994;2022-10-16T04:32:25;99615.33;;;8.85;83.07
62948;BME280;51940;52.126;-0.994;2022-10-16T04:34:50;99621.08;;;8.83;83.04
62948;BME280;51940;52.126;-0.994;2022-10-16T04:37:16;99624.31;;;8.81;83.35
62948;BME280;51940;52.126;-0.994;2022-10-16T04:39:41;99631.09;;;8.81;83.40
62948;BME280;51940;52.126;-0.994;2022-10-16T04:42:07;99634.98;;;8.81;83.30
62948;BME280;51940;52.126;-0.994;2022-10-16T04:44:32;99636.42;;;8.81;83.36
62948;BME280;51940;52.126;-0.994;2022-10-16T04:46:57;99640.33;;;8.81;83.51
62948;BME280;51940;52.126;-0.994;2022-10-16T04:49:23;99647.92;;;8.83;83.62
62948;BME280;51940;52.126;-0.994;2022-10-16T04:51:48;99653.09;;;8.83;83.56
62948;BME280;51940;52.126;-0.994;2022-10-16T04:54:14;99655.45;;;8.81;83.64
62948;BME280;51940;52.126;-0.994;2022-10-16T04:56:39;99658.52;;;8.79;83.70
62948;BME280;51940;52.126;-0.994;2022-10-16T04:59:12;99663.72;;;8.77;83.63
62948;BME280;51940;52.126;-0.994;2022-10-16T05:01:37;99662.34;;;8.75;83.80
62948;BME280;51940;52.126;-0.994;2022-10-16T05:04:02;99670.39;;;8.74;83.85
62948;BME280;51940;52.126;-0.994;2022-10-16T05:06:28;99678.46;;;8.71;83.84
62948;BME280;51940;52.126;-0.994;2022-10-16T05:08:53;99676.95;;;8.68;83.58
62948;BME280;51940;52.126;-0.994;2022-10-16T05:11:18;99680.42;;;8.65;83.91
62948;BME280;51940;52.126;-0.994;2022-10-16T05:13:44;99685.65;;;8.62;83.92
62948;BME280;51940;52.126;-0.994;2022-10-16T05:16:09;99691.63;;;8.58;83.72
62948;BME280;51940;52.126;-0.994;2022-10-16T05:18:35;99697.56;;;8.56;84.21
62948;BME280;51940;52.126;-0.994;2022-10-16T05:21:00;99699.25;;;8.52;84.09
62948;BME280;51940;52.126;-0.994;2022-10-16T05:23:25;99703.07;;;8.49;84.11
62948;BME280;51940;52.126;-0.994;2022-10-16T05:25:56;99709.41;;;8.44;84.29
62948;BME280;51940;52.126;-0.994;2022-10-16T05:28:27;99717.66;;;8.41;84.48
62948;BME280;51940;52.126;-0.994;2022-10-16T05:30:53;99727.34;;;8.38;84.50
62948;BME280;51940;52.126;-0.994;2022-10-16T05:33:24;99732.36;;;8.36;84.64
62948;BME280;51940;52.126;-0.994;2022-10-16T05:35:50;99736.48;;;8.33;85.01
62948;BME280;51940;52.126;-0.994;2022-10-16T05:38:17;99739.55;;;8.32;85.17
62948;BME280;51940;52.126;-0.994;2022-10-16T05:40:42;99741.38;;;8.31;85.33
62948;BME280;51940;52.126;-0.994;2022-10-16T05:43:08;99746.20;;;8.30;85.51
62948;BME280;51940;52.126;-0.994;2022-10-16T05:45:33;99752.09;;;8.28;85.67
62948;BME280;51940;52.126;-0.994;2022-10-16T05:48:00;99749.80;;;8.27;85.60
62948;BME280;51940;52.126;-0.994;2022-10-16T05:50:26;99750.18;;;8.26;85.83
62948;BME280;51940;52.126;-0.994;2022-10-16T05:52:52;99757.88;;;8.24;86.08
62948;BME280;51940;52.126;-0.994;2022-10-16T05:55:17;99762.72;;;8.22;86.23
62948;BME280;51940;52.126;-0.994;2022-10-16T05:57:43;99765.58;;;8.22;86.52
62948;BME280;51940;52.126;-0.994;2022-10-16T06:00:09;99768.27;;;8.21;86.58
62948;BME280;51940;52.126;-0.994;2022-10-16T06:02:35;99763.48;;;8.19;86.97
62948;BME280;51940;52.126;-0.994;2022-10-16T06:05:00;99766.02;;;8.17;87.07
62948;BME280;51940;52.126;-0.994;2022-10-16T06:07:26;99768.56;;;8.16;87.10
62948;BME280;51940;52.126;-0.994;2022-10-16T06:09:52;99781.92;;;8.14;87.10
62948;BME280;51940;52.126;-0.994;2022-10-16T06:12:18;99783.73;;;8.13;87.44
62948;BME280;51940;52.126;-0.994;2022-10-16T06:14:44;99789.11;;;8.11;87.18
62948;BME280;51940;52.126;-0.994;2022-10-16T06:17:12;99793.96;;;8.08;87.27
62948;BME280;51940;52.126;-0.994;2022-10-16T06:19:39;99801.13;;;8.06;87.49
62948;BME280;51940;52.126;-0.994;2022-10-16T06:22:05;99806.52;;;8.03;87.42
62948;BME280;51940;52.126;-0.994;2022-10-16T06:24:30;99813.85;;;8.00;87.56
62948;BME280;51940;52.126;-0.994;2022-10-16T06:26:55;99820.66;;;7.98;87.75
62948;BME280;51940;52.126;-0.994;2022-10-16T06:29:21;99824.27;;;7.96;87.70
62948;BME280;51940;52.126;-0.994;2022-10-16T06:31:46;99831.42;;;7.92;87.73
62948;BME280;51940;52.126;-0.994;2022-10-16T06:34:12;99842.85;;;7.90;87.62
62948;BME280;51940;52.126;-0.994;2022-10-16T06:36:38;99844.68;;;7.88;87.67
62948;BME280;51940;52.126;-0.994;2022-10-16T06:39:04;99855.71;;;7.87;87.64
62948;BME280;51940;52.126;-0.994;2022-10-16T06:41:30;99859.48;;;7.84;87.60
62948;BME280;51940;52.126;-0.994;2022-10-16T06:43:56;99859.86;;;7.83;87.67
62948;BME280;51940;52.126;-0.994;2022-10-16T06:46:23;99867.00;;;7.82;87.55
62948;BME280;51940;52.126;-0.994;2022-10-16T06:48:49;99870.45;;;7.79;87.54
62948;BME280;51940;52.126;-0.994;2022-10-16T06:51:17;99868.17;;;7.78;87.43
62948;BME280;51940;52.126;-0.994;2022-10-16T06:53:48;99874.20;;;7.78;87.54
62948;BME280;51940;52.126;-0.994;2022-10-16T06:56:18;99875.61;;;7.77;87.48
62948;BME280;51940;52.126;-0.994;2022-10-16T06:58:44;99876.84;;;7.79;87.41
62948;BME280;51940;52.126;-0.994;2022-10-16T07:01:11;99877.72;;;7.79;87.26
62948;BME280;51940;52.126;-0.994;2022-10-16T07:03:41;99874.33;;;7.80;87.30
62948;BME280;51940;52.126;-0.994;2022-10-16T07:06:08;99887.48;;;7.80;87.12
62948;BME280;51940;52.126;-0.994;2022-10-16T07:08:35;99891.08;;;7.76;87.21
62948;BME280;51940;52.126;-0.994;2022-10-16T07:11:06;99899.24;;;7.76;87.46
62948;BME280;51940;52.126;-0.994;2022-10-16T07:13:34;99901.34;;;7.78;87.57
62948;BME280;51940;52.126;-0.994;2022-10-16T07:16:14;99904.84;;;7.81;87.41
62948;BME280;51940;52.126;-0.994;2022-10-16T07:18:41;99906.37;;;7.83;87.40
62948;BME280;51940;52.126;-0.994;2022-10-16T07:21:15;99915.17;;;7.87;87.63
62948;BME280;51940;52.126;-0.994;2022-10-16T07:23:41;99918.29;;;7.91;87.55
62948;BME280;51940;52.126;-0.994;2022-10-16T07:26:08;99918.04;;;7.95;87.59
62948;BME280;51940;52.126;-0.994;2022-10-16T07:28:34;99917.45;;;7.98;87.43
62948;BME280;51940;52.126;-0.994;2022-10-16T07:31:04;99920.11;;;7.98;87.29
62948;BME280;51940;52.126;-0.994;2022-10-16T07:33:31;99926.32;;;7.99;87.57
62948;BME280;51940;52.126;-0.994;2022-10-16T07:35:57;99932.66;;;8.00;87.70
62948;BME280;51940;52.126;-0.994;2022-10-16T07:38:23;99936.52;;;8.02;87.90
62948;BME280;51940;52.126;-0.994;2022-10-16T07:40:58;99939.46;;;8.07;87.87
62948;BME280;51940;52.126;-0.994;2022-10-16T07:43:25;99941.12;;;8.12;87.66
62948;BME280;51940;52.126;-0.994;2022-10-16T07:45:51;99945.08;;;8.18;87.92
62948;BME280;51940;52.126;-0.994;2022-10-16T07:48:17;99950.94;;;8.26;88.51
62948;BME280;51940;52.126;-0.994;2022-10-16T07:50:43;99959.92;;;8.39;88.77
62948;BME280;51940;52.126;-0.994;2022-10-16T07:53:10;99966.91;;;8.52;89.03
62948;BME280;51940;52.126;-0.994;2022-10-16T07:55:35;99973.11;;;8.69;89.33
62948;BME280;51940;52.126;-0.994;2022-10-16T07:58:01;99974.50;;;8.85;89.40
62948;BME280;51940;52.126;-0.994;2022-10-16T08:00:26;99972.08;;;9.05;89.15
62948;BME280;51940;52.126;-0.994;2022-10-16T08:02:52;99972.89;;;9.22;88.86
62948;BME280;51940;52.126;-0.994;2022-10-16T08:05:17;99982.05;;;9.40;88.50
62948;BME280;51940;52.126;-0.994;2022-10-16T08:07:43;99990.38;;;9.55;88.00
62948;BME280;51940;52.126;-0.994;2022-10-16T08:10:17;99992.17;;;9.68;87.69
62948;BME280;51940;52.126;-0.994;2022-10-16T08:12:44;99998.36;;;9.82;87.50
62948;BME280;51940;52.126;-0.994;2022-10-16T08:15:09;100007.98;;;10.01;87.61
62948;BME280;51940;52.126;-0.994;2022-10-16T08:17:35;100012.25;;;10.21;87.28
62948;BME280;51940;52.126;-0.994;2022-10-16T08:20:01;100011.90;;;10.39;86.51
62948;BME280;51940;52.126;-0.994;2022-10-16T08:22:27;100009.91;;;10.53;86.03
62948;BME280;51940;52.126;-0.994;2022-10-16T08:24:52;100010.63;;;10.70;85.77
62948;BME280;51940;52.126;-0.994;2022-10-16T08:27:17;100016.30;;;10.83;84.74
62948;BME280;51940;52.126;-0.994;2022-10-16T08:29:43;100021.93;;;10.91;84.22
62948;BME280;51940;52.126;-0.994;2022-10-16T08:32:08;100026.25;;;11.01;84.05
62948;BME280;51940;52.126;-0.994;2022-10-16T08:34:33;100029.52;;;11.10;83.36
62948;BME280;51940;52.126;-0.994;2022-10-16T08:36:59;100031.53;;;11.15;82.94
62948;BME280;51940;52.126;-0.994;2022-10-16T08:39:24;100037.43;;;11.20;82.88
62948;BME280;51940;52.126;-0.994;2022-10-16T08:50:24;100046.71;;;11.14;81.40
62948;BME280;51940;52.126;-0.994;2022-10-16T08:52:50;100051.09;;;11.12;81.38
62948;BME280;51940;52.126;-0.994;2022-10-16T08:55:30;100054.29;;;11.12;81.33
62948;BME280;51940;52.126;-0.994;2022-10-16T08:57:58;100060.67;;;11.13;81.29
62948;BME280;51940;52.126;-0.994;2022-10-16T09:00:24;100068.83;;;11.15;81.19
62948;BME280;51940;52.126;-0.994;2022-10-16T09:03:00;100068.64;;;11.15;80.95
62948;BME280;51940;52.126;-0.994;2022-10-16T09:08:15;100066.48;;;11.15;80.49
62948;BME280;51940;52.126;-0.994;2022-10-16T09:11:07;100068.31;;;11.14;80.24
62948;BME280;51940;52.126;-0.994;2022-10-16T09:14:04;100067.35;;;11.11;80.24
62948;BME280;51940;52.126;-0.994;2022-10-16T09:16:52;100062.70;;;11.11;80.12
62948;BME280;51940;52.126;-0.994;2022-10-16T09:19:32;100062.83;;;11.13;80.06
62948;BME280;51940;52.126;-0.994;2022-10-16T09:22:11;100073.09;;;11.15;79.95
62948;BME280;51940;52.126;-0.994;2022-10-16T09:24:37;100081.21;;;11.18;79.60
62948;BME280;51940;52.126;-0.994;2022-10-16T09:27:03;100080.44;;;11.20;79.51
62948;BME280;51940;52.126;-0.994;2022-10-16T09:29:28;100083.23;;;11.22;79.21
62948;BME280;51940;52.126;-0.994;2022-10-16T09:31:54;100088.23;;;11.22;78.78
62948;BME280;51940;52.126;-0.994;2022-10-16T09:34:35;100093.73;;;11.23;78.71
62948;BME280;51940;52.126;-0.994;2022-10-16T09:37:09;100094.59;;;11.24;78.71
62948;BME280;51940;52.126;-0.994;2022-10-16T09:39:45;100097.05;;;11.25;78.65
62948;BME280;51940;52.126;-0.994;2022-10-16T09:42:27;100101.14;;;11.25;78.39
62948;BME280;51940;52.126;-0.994;2022-10-16T09:44:56;100102.34;;;11.27;77.89
62948;BME280;51940;52.126;-0.994;2022-10-16T09:47:23;100095.73;;;11.28;77.60
62948;BME280;51940;52.126;-0.994;2022-10-16T09:50:01;100097.67;;;11.29;77.43
62948;BME280;51940;52.126;-0.994;2022-10-16T09:52:30;100096.73;;;11.30;77.31
62948;BME280;51940;52.126;-0.994;2022-10-16T09:55:01;100100.31;;;11.30;77.18
62948;BME280;51940;52.126;-0.994;2022-10-16T09:57:28;100104.90;;;11.32;77.27
62948;BME280;51940;52.126;-0.994;2022-10-16T09:59:56;100109.63;;;11.34;76.78
62948;BME280;51940;52.126;-0.994;2022-10-16T10:02:31;100106.58;;;11.35;76.49
62948;BME280;51940;52.126;-0.994;2022-10-16T10:04:59;100107.08;;;11.36;76.44
62948;BME280;51940;52.126;-0.994;2022-10-16T10:07:27;100106.70;;;11.37;76.09
62948;BME280;51940;52.126;-0.994;2022-10-16T10:09:55;100111.99;;;11.39;75.62
62948;BME280;51940;52.126;-0.994;2022-10-16T10:12:23;100113.34;;;11.41;75.02
62948;BME280;51940;52.126;-0.994;2022-10-16T10:14:55;100112.52;;;11.44;74.61
62948;BME280;51940;52.126;-0.994;2022-10-16T10:17:22;100112.64;;;11.46;74.02
62948;BME280;51940;52.126;-0.994;2022-10-16T10:22:26;100119.55;;;11.53;73.88
62948;BME280;51940;52.126;-0.994;2022-10-16T10:27:43;100122.98;;;11.58;73.58
62948;BME280;51940;52.126;-0.994;2022-10-16T10:30:22;100122.69;;;11.61;73.48
62948;BME280;51940;52.126;-0.994;2022-10-16T10:38:30;100119.29;;;11.77;72.21
62948;BME280;51940;52.126;-0.994;2022-10-16T10:49:21;100114.23;;;12.36;69.27
62948;BME280;51940;52.126;-0.994;2022-10-16T10:54:51;100113.85;;;12.85;67.00
62948;BME280;51940;52.126;-0.994;2022-10-16T10:57:29;100120.04;;;13.06;66.80
62948;BME280;51940;52.126;-0.994;2022-10-16T11:00:10;100121.00;;;13.24;65.86
62948;BME280;51940;52.126;-0.994;2022-10-16T11:08:11;100117.02;;;13.61;65.43
62948;BME280;51940;52.126;-0.994;2022-10-16T11:10:53;100115.00;;;13.75;64.59
62948;BME280;51940;52.126;-0.994;2022-10-16T11:13:33;100110.00;;;13.82;63.02
62948;BME280;51940;52.126;-0.994;2022-10-16T11:16:07;100104.04;;;13.88;60.77
62948;BME280;51940;52.126;-0.994;2022-10-16T11:21:39;100089.83;;;14.05;62.26
62948;BME280;51940;52.126;-0.994;2022-10-16T11:24:34;100087.06;;;14.16;62.13
62948;BME280;51940;52.126;-0.994;2022-10-16T11:27:06;100090.29;;;14.24;62.26
62948;BME280;51940;52.126;-0.994;2022-10-16T11:29:35;100090.70;;;14.31;61.81
62948;BME280;51940;52.126;-0.994;2022-10-16T11:32:22;100093.87;;;14.32;61.59
62948;BME280;51940;52.126;-0.994;2022-10-16T11:34:55;100096.75;;;14.36;62.13
62948;BME280;51940;52.126;-0.994;2022-10-16T11:37:31;100097.66;;;14.44;62.11
62948;BME280;51940;52.126;-0.994;2022-10-16T11:40:14;100098.14;;;14.54;61.76
62948;BME280;51940;52.126;-0.994;2022-10-16T11:42:48;100105.70;;;14.61;61.24
62948;BME280;51940;52.126;-0.994;2022-10-16T11:56:12;100087.85;;;14.83;60.22
62948;BME280;51940;52.126;-0.994;2022-10-16T11:59:00;100085.16;;;14.82;60.72
62948;BME280;51940;52.126;-0.994;2022-10-16T12:02:30;100086.10;;;14.85;61.05
62948;BME280;51940;52.126;-0.994;2022-10-16T12:04:39;100082.94;;;14.88;60.63
62948;BME280;51940;52.126;-0.994;2022-10-16T12:07:21;100083.75;;;14.90;60.77
62948;BME280;51940;52.126;-0.994;2022-10-16T12:09:48;100086.11;;;14.92;60.43
62948;BME280;51940;52.126;-0.994;2022-10-16T12:12:37;100079.83;;;14.92;60.19
62948;BME280;51940;52.126;-0.994;2022-10-16T12:15:20;100088.45;;;14.93;60.66
62948;BME280;51940;52.126;-0.994;2022-10-16T12:17:46;100086.27;;;14.97;60.56
62948;BME280;51940;52.126;-0.994;2022-10-16T12:22:41;100085.23;;;15.07;60.69
62948;BME280;51940;52.126;-0.994;2022-10-16T12:25:30;100084.48;;;15.12;60.76
62948;BME280;51940;52.126;-0.994;2022-10-16T12:30:34;100091.14;;;15.27;60.79
62948;BME280;51940;52.126;-0.994;2022-10-16T12:33:05;100091.38;;;15.33;60.52
62948;BME280;51940;52.126;-0.994;2022-10-16T12:35:35;100090.78;;;15.38;60.42
62948;BME280;51940;52.126;-0.994;2022-10-16T12:38:28;100092.46;;;15.44;60.50
62948;BME280;51940;52.126;-0.994;2022-10-16T12:41:03;100092.43;;;15.48;60.59
62948;BME280;51940;52.126;-0.994;2022-10-16T12:43:39;100095.82;;;15.56;60.63
62948;BME280;51940;52.126;-0.994;2022-10-16T12:48:41;100096.98;;;15.62;60.17
62948;BME280;51940;52.126;-0.994;2022-10-16T12:51:23;100097.19;;;15.68;60.14
62948;BME280;51940;52.126;-0.994;2022-10-16T13:02:39;100090.02;;;16.00;59.63
62948;BME280;51940;52.126;-0.994;2022-10-16T13:08:46;100087.70;;;16.31;58.62
62948;BME280;51940;52.126;-0.994;2022-10-16T13:12:36;100087.89;;;16.41;58.02
62948;BME280;51940;52.126;-0.994;2022-10-16T13:17:40;100086.84;;;16.47;57.96
62948;BME280;51940;52.126;-0.994;2022-10-16T13:23:02;100092.48;;;16.62;57.61
62948;BME280;51940;52.126;-0.994;2022-10-16T13:25:46;100083.09;;;16.60;57.28
62948;BME280;51940;52.126;-0.994;2022-10-16T13:28:22;100080.75;;;16.50;57.64
62948;BME280;51940;52.126;-0.994;2022-10-16T13:30:56;100078.45;;;16.46;57.41
62948;BME280;51940;52.126;-0.994;2022-10-16T13:33:39;100073.67;;;16.41;57.35
62948;BME280;51940;52.126;-0.994;2022-10-16T13:36:20;100067.55;;;16.34;57.19
62948;BME280;51940;52.126;-0.994;2022-10-16T13:38:46;100067.74;;;16.24;57.22
62948;BME280;51940;52.126;-0.994;2022-10-16T13:41:17;100069.71;;;16.14;57.35
62948;BME280;51940;52.126;-0.994;2022-10-16T13:43:51;100071.09;;;16.04;57.60
62948;BME280;51940;52.126;-0.994;2022-10-16T13:46:18;100068.13;;;15.96;57.17
62948;BME280;51940;52.126;-0.994;2022-10-16T13:48:56;100065.89;;;15.91;57.05
62948;BME280;51940;52.126;-0.994;2022-10-16T13:51:22;100064.47;;;15.90;57.03
62948;BME280;51940;52.126;-0.994;2022-10-16T13:53:48;100070.50;;;15.88;56.65
62948;BME280;51940;52.126;-0.994;2022-10-16T13:56:16;100074.11;;;15.84;56.23
62948;BME280;51940;52.126;-0.994;2022-10-16T13:58:43;100078.82;;;15.80;56.58
62948;BME280;51940;52.126;-0.994;2022-10-16T14:01:18;100076.46;;;15.73;56.46
62948;BME280;51940;52.126;-0.994;2022-10-16T14:03:46;100076.40;;;15.67;56.97
62948;BME280;51940;52.126;-0.994;2022-10-16T14:06:14;100071.73;;;15.64;56.93
62948;BME280;51940;52.126;-0.994;2022-10-16T14:09:06;100067.67;;;15.58;56.83
62948;BME280;51940;52.126;-0.994;2022-10-16T14:11:33;100063.98;;;15.56;57.31
62948;BME280;51940;52.126;-0.994;2022-10-16T14:14:03;100068.28;;;15.57;57.72
62948;BME280;51940;52.126;-0.994;2022-10-16T14:16:30;100070.59;;;15.57;57.46
62948;BME280;51940;52.126;-0.994;2022-10-16T14:19:02;100071.27;;;15.58;57.37
62948;BME280;51940;52.126;-0.994;2022-10-16T14:21:30;100077.03;;;15.58;56.76
62948;BME280;51940;52.126;-0.994;2022-10-16T14:23:57;100071.14;;;15.57;56.60
62948;BME280;51940;52.126;-0.994;2022-10-16T14:26:25;100074.23;;;15.57;56.36
62948;BME280;51940;52.126;-0.994;2022-10-16T14:29:08;100073.11;;;15.57;56.32
62948;BME280;51940;52.126;-0.994;2022-10-16T14:31:35;100073.77;;;15.58;56.47
62948;BME280;51940;52.126;-0.994;2022-10-16T14:34:02;100065.89;;;15.58;56.34
62948;BME280;51940;52.126;-0.994;2022-10-16T14:36:28;100063.90;;;15.58;56.61